sensor_id;sensor_type;location;lat;lon;timestamp;P1;durP1;ratioP1;P2;durP2;ratioP2
31594;SDS011;18200;48.726;8.892;2023-06-14T00:01:28;6.82;;;5.03;;
31594;SDS011;18200;48.726;8.892;2023-06-14T00:05:29;9.35;;;5.30;;
31594;SDS011;18200;48.726;8.892;2023-06-14T00:09:30;8.65;;;5.40;;
31594;SDS011;18200;48.726;8.892;2023-06-14T00:13:31;9.48;;;5.40;;
31594;SDS011;18200;48.726;8.892;2023-06-14T00:17:31;7.43;;;5.30;;
31594;SDS011;18200;48.726;8.892;2023-06-14T00:21:32;10.32;;;5.55;;
31594;SDS011;18200;48.726;8.892;2023-06-14T00:25:32;10.88;;;5.65;;
31594;SDS011;18200;48.726;8.892;2023-06-14T00:29:32;7.75;;;5.07;;
31594;SDS011;18200;48.726;8.892;2023-06-14T00:33:33;8.35;;;5.47;;
31594;SDS011;18200;48.726;8.892;2023-06-14T00:37:33;10.70;;;5.40;;
31594;SDS011;18200;48.726;8.892;2023-06-14T00:41:36;9.20;;;5.72;;
31594;SDS011;18200;48.726;8.892;2023-06-14T00:45:36;7.65;;;5.38;;
31594;SDS011;18200;48.726;8.892;2023-06-14T00:49:36;7.43;;;5.40;;
31594;SDS011;18200;48.726;8.892;2023-06-14T00:53:37;8.25;;;5.80;;
31594;SDS011;18200;48.726;8.892;2023-06-14T00:57:39;8.95;;;5.78;;
31594;SDS011;18200;48.726;8.892;2023-06-14T01:01:40;9.80;;;5.82;;
31594;SDS011;18200;48.726;8.892;2023-06-14T01:05:42;9.70;;;5.57;;
31594;SDS011;18200;48.726;8.892;2023-06-14T01:13:58;11.68;;;5.50;;
31594;SDS011;18200;48.726;8.892;2023-06-14T01:18:02;9.73;;;5.97;;
31594;SDS011;18200;48.726;8.892;2023-06-14T01:22:04;7.90;;;5.38;;
31594;SDS011;18200;48.726;8.892;2023-06-14T01:26:05;10.75;;;5.05;;
31594;SDS011;18200;48.726;8.892;2023-06-14T01:30:05;7.95;;;5.75;;
31594;SDS011;18200;48.726;8.892;2023-06-14T01:34:07;10.13;;;6.05;;
31594;SDS011;18200;48.726;8.892;2023-06-14T01:38:08;8.05;;;5.55;;
31594;SDS011;18200;48.726;8.892;2023-06-14T01:42:09;8.93;;;5.60;;
31594;SDS011;18200;48.726;8.892;2023-06-14T01:46:11;9.05;;;5.75;;
31594;SDS011;18200;48.726;8.892;2023-06-14T01:50:13;7.70;;;5.43;;
31594;SDS011;18200;48.726;8.892;2023-06-14T01:54:13;9.93;;;6.05;;
31594;SDS011;18200;48.726;8.892;2023-06-14T01:58:14;9.05;;;5.82;;
31594;SDS011;18200;48.726;8.892;2023-06-14T02:02:16;8.30;;;5.38;;
31594;SDS011;18200;48.726;8.892;2023-06-14T02:06:17;8.23;;;5.85;;
31594;SDS011;18200;48.726;8.892;2023-06-14T02:10:17;10.68;;;6.10;;
31594;SDS011;18200;48.726;8.892;2023-06-14T02:14:17;10.23;;;5.60;;
31594;SDS011;18200;48.726;8.892;2023-06-14T02:18:18;9.60;;;5.57;;
31594;SDS011;18200;48.726;8.892;2023-06-14T02:22:18;8.40;;;5.55;;
31594;SDS011;18200;48.726;8.892;2023-06-14T02:26:20;8.15;;;5.50;;
31594;SDS011;18200;48.726;8.892;2023-06-14T02:30:20;7.20;;;5.10;;
31594;SDS011;18200;48.726;8.892;2023-06-14T02:34:21;8.00;;;5.00;;
31594;SDS011;18200;48.726;8.892;2023-06-14T02:38:22;9.35;;;5.80;;
31594;SDS011;18200;48.726;8.892;2023-06-14T02:42:22;11.98;;;6.63;;
31594;SDS011;18200;48.726;8.892;2023-06-14T02:46:22;10.30;;;5.72;;
31594;SDS011;18200;48.726;8.892;2023-06-14T02:50:23;8.85;;;5.78;;
31594;SDS011;18200;48.726;8.892;2023-06-14T02:54:24;11.18;;;6.63;;
31594;SDS011;18200;48.726;8.892;2023-06-14T02:58:25;10.60;;;6.10;;
31594;SDS011;18200;48.726;8.892;2023-06-14T03:02:25;14.77;;;6.60;;
31594;SDS011;18200;48.726;8.892;2023-06-14T03:06:26;8.90;;;6.13;;
31594;SDS011;18200;48.726;8.892;2023-06-14T03:10:30;9.90;;;6.10;;
31594;SDS011;18200;48.726;8.892;2023-06-14T03:14:32;8.43;;;6.18;;
31594;SDS011;18200;48.726;8.892;2023-06-14T03:18:33;13.60;;;6.00;;
31594;SDS011;18200;48.726;8.892;2023-06-14T03:22:36;10.43;;;6.28;;
31594;SDS011;18200;48.726;8.892;2023-06-14T03:26:37;13.43;;;6.22;;
31594;SDS011;18200;48.726;8.892;2023-06-14T03:30:38;8.68;;;5.93;;
31594;SDS011;18200;48.726;8.892;2023-06-14T03:34:39;11.07;;;6.38;;
31594;SDS011;18200;48.726;8.892;2023-06-14T03:38:41;15.93;;;9.63;;
31594;SDS011;18200;48.726;8.892;2023-06-14T03:42:42;26.65;;;14.40;;
31594;SDS011;18200;48.726;8.892;2023-06-14T03:46:47;20.33;;;12.48;;
31594;SDS011;18200;48.726;8.892;2023-06-14T03:50:48;18.30;;;13.70;;
31594;SDS011;18200;48.726;8.892;2023-06-14T03:54:49;12.85;;;9.13;;
31594;SDS011;18200;48.726;8.892;2023-06-14T03:58:50;9.63;;;6.68;;
31594;SDS011;18200;48.726;8.892;2023-06-14T04:02:50;9.88;;;6.55;;
31594;SDS011;18200;48.726;8.892;2023-06-14T04:06:52;14.45;;;8.20;;
31594;SDS011;18200;48.726;8.892;2023-06-14T04:10:53;10.45;;;7.07;;
31594;SDS011;18200;48.726;8.892;2023-06-14T04:14:53;9.65;;;7.20;;
31594;SDS011;18200;48.726;8.892;2023-06-14T04:18:54;9.82;;;6.75;;
31594;SDS011;18200;48.726;8.892;2023-06-14T04:22:56;7.38;;;6.07;;
31594;SDS011;18200;48.726;8.892;2023-06-14T04:27:00;12.55;;;6.85;;
31594;SDS011;18200;48.726;8.892;2023-06-14T04:31:04;11.10;;;6.88;;
31594;SDS011;18200;48.726;8.892;2023-06-14T04:35:06;15.48;;;6.97;;
31594;SDS011;18200;48.726;8.892;2023-06-14T04:39:09;11.90;;;6.55;;
31594;SDS011;18200;48.726;8.892;2023-06-14T04:43:10;10.20;;;7.10;;
31594;SDS011;18200;48.726;8.892;2023-06-14T04:47:15;9.57;;;6.03;;
31594;SDS011;18200;48.726;8.892;2023-06-14T04:51:17;10.52;;;7.00;;
31594;SDS011;18200;48.726;8.892;2023-06-14T04:55:21;12.07;;;7.05;;
31594;SDS011;18200;48.726;8.892;2023-06-14T04:59:22;11.00;;;6.75;;
31594;SDS011;18200;48.726;8.892;2023-06-14T05:03:23;11.45;;;7.05;;
31594;SDS011;18200;48.726;8.892;2023-06-14T05:07:24;15.05;;;7.00;;
31594;SDS011;18200;48.726;8.892;2023-06-14T05:11:25;10.93;;;6.57;;
31594;SDS011;18200;48.726;8.892;2023-06-14T05:15:27;11.40;;;6.82;;
31594;SDS011;18200;48.726;8.892;2023-06-14T05:19:29;9.68;;;6.55;;
31594;SDS011;18200;48.726;8.892;2023-06-14T05:23:29;10.40;;;6.50;;
31594;SDS011;18200;48.726;8.892;2023-06-14T05:27:30;9.50;;;6.95;;
31594;SDS011;18200;48.726;8.892;2023-06-14T05:31:30;10.50;;;6.13;;
31594;SDS011;18200;48.726;8.892;2023-06-14T05:35:31;11.63;;;7.28;;
31594;SDS011;18200;48.726;8.892;2023-06-14T05:39:31;12.93;;;6.70;;
31594;SDS011;18200;48.726;8.892;2023-06-14T05:43:31;9.55;;;6.40;;
31594;SDS011;18200;48.726;8.892;2023-06-14T05:47:32;10.95;;;7.65;;
31594;SDS011;18200;48.726;8.892;2023-06-14T05:51:33;12.52;;;7.03;;
31594;SDS011;18200;48.726;8.892;2023-06-14T05:55:34;8.30;;;6.35;;
31594;SDS011;18200;48.726;8.892;2023-06-14T05:59:35;9.48;;;6.82;;
31594;SDS011;18200;48.726;8.892;2023-06-14T06:03:36;14.75;;;6.78;;
31594;SDS011;18200;48.726;8.892;2023-06-14T06:07:36;10.32;;;5.90;;
31594;SDS011;18200;48.726;8.892;2023-06-14T06:11:37;11.27;;;7.10;;
31594;SDS011;18200;48.726;8.892;2023-06-14T06:15:37;10.88;;;6.65;;
31594;SDS011;18200;48.726;8.892;2023-06-14T06:19:38;11.13;;;6.78;;
31594;SDS011;18200;48.726;8.892;2023-06-14T06:23:38;9.45;;;5.97;;
31594;SDS011;18200;48.726;8.892;2023-06-14T06:27:38;12.60;;;6.10;;
31594;SDS011;18200;48.726;8.892;2023-06-14T06:31:40;13.02;;;6.35;;
31594;SDS011;18200;48.726;8.892;2023-06-14T06:35:40;8.23;;;5.88;;
31594;SDS011;18200;48.726;8.892;2023-06-14T06:39:41;9.88;;;6.32;;
31594;SDS011;18200;48.726;8.892;2023-06-14T06:43:41;11.77;;;6.20;;
31594;SDS011;18200;48.726;8.892;2023-06-14T06:47:43;15.30;;;6.78;;
31594;SDS011;18200;48.726;8.892;2023-06-14T06:51:52;13.57;;;5.68;;
31594;SDS011;18200;48.726;8.892;2023-06-14T06:55:59;8.50;;;5.70;;
31594;SDS011;18200;48.726;8.892;2023-06-14T07:00:00;10.73;;;5.70;;
31594;SDS011;18200;48.726;8.892;2023-06-14T07:04:00;12.15;;;6.25;;
31594;SDS011;18200;48.726;8.892;2023-06-14T07:08:02;9.95;;;6.05;;
31594;SDS011;18200;48.726;8.892;2023-06-14T07:12:02;8.93;;;5.68;;
31594;SDS011;18200;48.726;8.892;2023-06-14T07:16:04;11.93;;;5.38;;
31594;SDS011;18200;48.726;8.892;2023-06-14T07:20:04;9.52;;;4.78;;
31594;SDS011;18200;48.726;8.892;2023-06-14T07:24:08;14.75;;;4.85;;
31594;SDS011;18200;48.726;8.892;2023-06-14T07:28:08;7.38;;;5.13;;
31594;SDS011;18200;48.726;8.892;2023-06-14T07:32:08;10.63;;;5.05;;
31594;SDS011;18200;48.726;8.892;2023-06-14T07:36:09;10.45;;;5.38;;
31594;SDS011;18200;48.726;8.892;2023-06-14T07:40:09;18.90;;;5.70;;
31594;SDS011;18200;48.726;8.892;2023-06-14T07:44:10;12.95;;;5.53;;
31594;SDS011;18200;48.726;8.892;2023-06-14T07:48:12;8.40;;;5.15;;
31594;SDS011;18200;48.726;8.892;2023-06-14T07:52:12;6.55;;;4.88;;
31594;SDS011;18200;48.726;8.892;2023-06-14T07:56:13;17.10;;;5.32;;
31594;SDS011;18200;48.726;8.892;2023-06-14T08:00:14;12.52;;;5.30;;
31594;SDS011;18200;48.726;8.892;2023-06-14T08:04:15;10.30;;;6.03;;
31594;SDS011;18200;48.726;8.892;2023-06-14T08:08:16;16.17;;;5.25;;
31594;SDS011;18200;48.726;8.892;2023-06-14T08:12:16;7.45;;;4.90;;
31594;SDS011;18200;48.726;8.892;2023-06-14T08:16:16;14.95;;;6.05;;
31594;SDS011;18200;48.726;8.892;2023-06-14T08:20:17;10.38;;;5.68;;
31594;SDS011;18200;48.726;8.892;2023-06-14T08:24:20;17.83;;;5.90;;
31594;SDS011;18200;48.726;8.892;2023-06-14T08:28:24;13.25;;;5.95;;
31594;SDS011;18200;48.726;8.892;2023-06-14T08:32:24;11.85;;;6.22;;
31594;SDS011;18200;48.726;8.892;2023-06-14T08:36:25;11.98;;;5.45;;
31594;SDS011;18200;48.726;8.892;2023-06-14T08:40:25;10.18;;;5.63;;
31594;SDS011;18200;48.726;8.892;2023-06-14T08:44:28;16.15;;;6.18;;
31594;SDS011;18200;48.726;8.892;2023-06-14T08:48:29;12.57;;;6.18;;
31594;SDS011;18200;48.726;8.892;2023-06-14T08:52:33;8.32;;;5.32;;
31594;SDS011;18200;48.726;8.892;2023-06-14T08:56:40;11.23;;;5.63;;
31594;SDS011;18200;48.726;8.892;2023-06-14T09:00:41;13.93;;;5.88;;
31594;SDS011;18200;48.726;8.892;2023-06-14T09:04:42;11.85;;;5.60;;
31594;SDS011;18200;48.726;8.892;2023-06-14T09:08:45;17.85;;;6.07;;
31594;SDS011;18200;48.726;8.892;2023-06-14T09:12:47;9.65;;;5.38;;
31594;SDS011;18200;48.726;8.892;2023-06-14T09:16:48;10.02;;;5.47;;
31594;SDS011;18200;48.726;8.892;2023-06-14T09:20:52;14.40;;;5.68;;
31594;SDS011;18200;48.726;8.892;2023-06-14T09:24:53;11.27;;;5.97;;
31594;SDS011;18200;48.726;8.892;2023-06-14T09:28:53;8.15;;;5.85;;
31594;SDS011;18200;48.726;8.892;2023-06-14T09:32:55;7.80;;;5.15;;
31594;SDS011;18200;48.726;8.892;2023-06-14T09:36:56;10.18;;;5.60;;
31594;SDS011;18200;48.726;8.892;2023-06-14T09:40:57;10.15;;;6.10;;
31594;SDS011;18200;48.726;8.892;2023-06-14T09:44:58;11.50;;;5.90;;
31594;SDS011;18200;48.726;8.892;2023-06-14T09:48:59;10.23;;;5.55;;
31594;SDS011;18200;48.726;8.892;2023-06-14T09:53:04;7.70;;;4.93;;
31594;SDS011;18200;48.726;8.892;2023-06-14T09:57:06;9.25;;;4.97;;
31594;SDS011;18200;48.726;8.892;2023-06-14T10:01:08;11.38;;;5.50;;
31594;SDS011;18200;48.726;8.892;2023-06-14T10:05:11;9.85;;;5.38;;
31594;SDS011;18200;48.726;8.892;2023-06-14T10:09:15;9.43;;;4.68;;
31594;SDS011;18200;48.726;8.892;2023-06-14T10:13:16;13.65;;;5.50;;
31594;SDS011;18200;48.726;8.892;2023-06-14T10:17:35;6.68;;;4.38;;
31594;SDS011;18200;48.726;8.892;2023-06-14T10:26:22;10.20;;;4.70;;
31594;SDS011;18200;48.726;8.892;2023-06-14T10:30:25;7.63;;;4.13;;
31594;SDS011;18200;48.726;8.892;2023-06-14T10:34:29;8.65;;;4.57;;
31594;SDS011;18200;48.726;8.892;2023-06-14T10:38:31;12.43;;;4.60;;
31594;SDS011;18200;48.726;8.892;2023-06-14T10:42:32;8.52;;;5.13;;
31594;SDS011;18200;48.726;8.892;2023-06-14T10:46:32;10.90;;;4.88;;
31594;SDS011;18200;48.726;8.892;2023-06-14T10:50:33;6.05;;;4.50;;
31594;SDS011;18200;48.726;8.892;2023-06-14T10:54:34;11.30;;;4.82;;
31594;SDS011;18200;48.726;8.892;2023-06-14T10:58:34;7.47;;;5.20;;
31594;SDS011;18200;48.726;8.892;2023-06-14T11:02:45;9.05;;;5.05;;
31594;SDS011;18200;48.726;8.892;2023-06-14T11:07:10;9.15;;;4.50;;
31594;SDS011;18200;48.726;8.892;2023-06-14T11:11:18;6.50;;;4.38;;
31594;SDS011;18200;48.726;8.892;2023-06-14T11:15:29;7.13;;;4.65;;
31594;SDS011;18200;48.726;8.892;2023-06-14T11:19:31;6.80;;;4.78;;
31594;SDS011;18200;48.726;8.892;2023-06-14T11:23:31;8.38;;;4.97;;
31594;SDS011;18200;48.726;8.892;2023-06-14T11:27:35;11.70;;;6.15;;
31594;SDS011;18200;48.726;8.892;2023-06-14T11:31:35;8.77;;;5.07;;
31594;SDS011;18200;48.726;8.892;2023-06-14T11:35:36;8.70;;;4.78;;
31594;SDS011;18200;48.726;8.892;2023-06-14T11:39:36;9.05;;;5.30;;
31594;SDS011;18200;48.726;8.892;2023-06-14T11:43:37;6.30;;;4.80;;
31594;SDS011;18200;48.726;8.892;2023-06-14T11:47:38;9.73;;;5.72;;
31594;SDS011;18200;48.726;8.892;2023-06-14T11:51:39;13.45;;;7.38;;
31594;SDS011;18200;48.726;8.892;2023-06-14T11:55:42;13.40;;;5.60;;
31594;SDS011;18200;48.726;8.892;2023-06-14T11:59:45;10.75;;;4.82;;
31594;SDS011;18200;48.726;8.892;2023-06-14T12:03:47;14.88;;;5.38;;
31594;SDS011;18200;48.726;8.892;2023-06-14T12:07:49;8.90;;;4.53;;
31594;SDS011;18200;48.726;8.892;2023-06-14T12:11:50;12.77;;;4.72;;
31594;SDS011;18200;48.726;8.892;2023-06-14T12:15:54;7.38;;;4.55;;
31594;SDS011;18200;48.726;8.892;2023-06-14T12:19:56;12.25;;;4.47;;
31594;SDS011;18200;48.726;8.892;2023-06-14T12:23:56;11.67;;;4.43;;
31594;SDS011;18200;48.726;8.892;2023-06-14T12:27:57;7.95;;;4.63;;
31594;SDS011;18200;48.726;8.892;2023-06-14T12:31:58;7.30;;;4.50;;
31594;SDS011;18200;48.726;8.892;2023-06-14T12:35:59;8.15;;;4.43;;
31594;SDS011;18200;48.726;8.892;2023-06-14T12:39:59;8.07;;;4.28;;
31594;SDS011;18200;48.726;8.892;2023-06-14T12:44:00;5.38;;;4.40;;
31594;SDS011;18200;48.726;8.892;2023-06-14T12:48:04;12.55;;;4.70;;
31594;SDS011;18200;48.726;8.892;2023-06-14T12:52:04;9.57;;;4.28;;
31594;SDS011;18200;48.726;8.892;2023-06-14T12:56:05;12.18;;;4.75;;
31594;SDS011;18200;48.726;8.892;2023-06-14T13:00:05;9.45;;;5.32;;
31594;SDS011;18200;48.726;8.892;2023-06-14T13:04:07;9.95;;;3.70;;
31594;SDS011;18200;48.726;8.892;2023-06-14T13:08:08;7.25;;;4.05;;
31594;SDS011;18200;48.726;8.892;2023-06-14T13:12:09;7.35;;;4.55;;
31594;SDS011;18200;48.726;8.892;2023-06-14T13:16:13;8.98;;;4.40;;
31594;SDS011;18200;48.726;8.892;2023-06-14T13:20:14;6.90;;;4.55;;
31594;SDS011;18200;48.726;8.892;2023-06-14T13:24:16;7.50;;;4.38;;
31594;SDS011;18200;48.726;8.892;2023-06-14T13:28:16;8.60;;;4.65;;
31594;SDS011;18200;48.726;8.892;2023-06-14T13:32:17;8.93;;;4.95;;
31594;SDS011;18200;48.726;8.892;2023-06-14T13:36:17;7.00;;;4.20;;
31594;SDS011;18200;48.726;8.892;2023-06-14T13:40:18;9.82;;;4.70;;
31594;SDS011;18200;48.726;8.892;2023-06-14T13:44:25;5.80;;;4.50;;
31594;SDS011;18200;48.726;8.892;2023-06-14T13:48:26;8.15;;;4.68;;
31594;SDS011;18200;48.726;8.892;2023-06-14T13:52:26;8.68;;;4.32;;
31594;SDS011;18200;48.726;8.892;2023-06-14T13:56:27;9.13;;;4.53;;
31594;SDS011;18200;48.726;8.892;2023-06-14T14:00:27;5.32;;;3.92;;
31594;SDS011;18200;48.726;8.892;2023-06-14T14:04:27;5.20;;;3.70;;
31594;SDS011;18200;48.726;8.892;2023-06-14T14:08:28;7.20;;;4.25;;
31594;SDS011;18200;48.726;8.892;2023-06-14T14:12:28;6.90;;;4.20;;
31594;SDS011;18200;48.726;8.892;2023-06-14T14:16:29;6.37;;;3.97;;
31594;SDS011;18200;48.726;8.892;2023-06-14T14:20:30;10.48;;;3.85;;
31594;SDS011;18200;48.726;8.892;2023-06-14T14:24:31;11.30;;;3.90;;
31594;SDS011;18200;48.726;8.892;2023-06-14T14:28:31;7.07;;;4.07;;
31594;SDS011;18200;48.726;8.892;2023-06-14T14:32:33;8.15;;;3.72;;
31594;SDS011;18200;48.726;8.892;2023-06-14T14:36:33;5.33;;;3.77;;
31594;SDS011;18200;48.726;8.892;2023-06-14T14:40:37;7.45;;;4.18;;
31594;SDS011;18200;48.726;8.892;2023-06-14T14:44:38;6.80;;;3.88;;
31594;SDS011;18200;48.726;8.892;2023-06-14T14:48:38;10.07;;;4.68;;
31594;SDS011;18200;48.726;8.892;2023-06-14T14:52:38;10.70;;;4.23;;
31594;SDS011;18200;48.726;8.892;2023-06-14T14:56:39;6.10;;;3.40;;
31594;SDS011;18200;48.726;8.892;2023-06-14T15:00:39;5.55;;;4.13;;
31594;SDS011;18200;48.726;8.892;2023-06-14T15:04:40;6.68;;;3.70;;
31594;SDS011;18200;48.726;8.892;2023-06-14T15:08:40;8.13;;;4.07;;
31594;SDS011;18200;48.726;8.892;2023-06-14T15:12:40;5.55;;;3.55;;
31594;SDS011;18200;48.726;8.892;2023-06-14T15:16:41;10.40;;;4.18;;
31594;SDS011;18200;48.726;8.892;2023-06-14T15:20:41;8.90;;;4.30;;
31594;SDS011;18200;48.726;8.892;2023-06-14T15:24:42;10.35;;;6.13;;
31594;SDS011;18200;48.726;8.892;2023-06-14T15:28:44;9.57;;;5.85;;
31594;SDS011;18200;48.726;8.892;2023-06-14T15:32:44;5.70;;;4.13;;
31594;SDS011;18200;48.726;8.892;2023-06-14T15:36:44;7.60;;;3.97;;
31594;SDS011;18200;48.726;8.892;2023-06-14T15:40:45;7.30;;;3.80;;
31594;SDS011;18200;48.726;8.892;2023-06-14T15:44:46;7.75;;;4.43;;
31594;SDS011;18200;48.726;8.892;2023-06-14T15:48:47;9.23;;;4.47;;
31594;SDS011;18200;48.726;8.892;2023-06-14T15:52:47;8.53;;;3.80;;
31594;SDS011;18200;48.726;8.892;2023-06-14T15:56:48;9.23;;;4.90;;
31594;SDS011;18200;48.726;8.892;2023-06-14T16:00:48;9.00;;;4.07;;
31594;SDS011;18200;48.726;8.892;2023-06-14T16:04:48;7.57;;;3.90;;
31594;SDS011;18200;48.726;8.892;2023-06-14T16:08:49;14.50;;;4.30;;
31594;SDS011;18200;48.726;8.892;2023-06-14T16:12:49;8.68;;;4.20;;
31594;SDS011;18200;48.726;8.892;2023-06-14T16:16:50;7.87;;;4.20;;
31594;SDS011;18200;48.726;8.892;2023-06-14T16:20:50;7.50;;;4.30;;
31594;SDS011;18200;48.726;8.892;2023-06-14T16:24:50;5.78;;;3.80;;
31594;SDS011;18200;48.726;8.892;2023-06-14T16:28:51;10.32;;;4.00;;
31594;SDS011;18200;48.726;8.892;2023-06-14T16:32:51;4.70;;;3.60;;
31594;SDS011;18200;48.726;8.892;2023-06-14T16:36:52;7.22;;;4.40;;
31594;SDS011;18200;48.726;8.892;2023-06-14T16:40:52;5.33;;;4.00;;
31594;SDS011;18200;48.726;8.892;2023-06-14T16:44:52;6.82;;;3.90;;
31594;SDS011;18200;48.726;8.892;2023-06-14T16:48:53;10.27;;;4.80;;
31594;SDS011;18200;48.726;8.892;2023-06-14T16:52:53;7.43;;;3.63;;
31594;SDS011;18200;48.726;8.892;2023-06-14T16:56:53;5.73;;;4.03;;
31594;SDS011;18200;48.726;8.892;2023-06-14T17:00:54;4.28;;;3.85;;
31594;SDS011;18200;48.726;8.892;2023-06-14T17:04:54;7.55;;;4.15;;
31594;SDS011;18200;48.726;8.892;2023-06-14T17:08:55;8.23;;;4.20;;
31594;SDS011;18200;48.726;8.892;2023-06-14T17:12:55;8.55;;;4.38;;
31594;SDS011;18200;48.726;8.892;2023-06-14T17:16:55;6.53;;;3.95;;
31594;SDS011;18200;48.726;8.892;2023-06-14T17:20:56;7.85;;;4.03;;
31594;SDS011;18200;48.726;8.892;2023-06-14T17:24:56;6.47;;;4.30;;
31594;SDS011;18200;48.726;8.892;2023-06-14T17:28:56;8.25;;;4.25;;
31594;SDS011;18200;48.726;8.892;2023-06-14T17:32:57;7.82;;;4.15;;
31594;SDS011;18200;48.726;8.892;2023-06-14T17:36:57;7.47;;;4.25;;
31594;SDS011;18200;48.726;8.892;2023-06-14T17:40:57;12.10;;;4.50;;
31594;SDS011;18200;48.726;8.892;2023-06-14T17:45:00;7.88;;;4.40;;
31594;SDS011;18200;48.726;8.892;2023-06-14T17:49:01;6.75;;;4.03;;
31594;SDS011;18200;48.726;8.892;2023-06-14T17:53:01;9.23;;;4.15;;
31594;SDS011;18200;48.726;8.892;2023-06-14T17:57:03;8.48;;;4.40;;
31594;SDS011;18200;48.726;8.892;2023-06-14T18:01:04;8.95;;;4.50;;
31594;SDS011;18200;48.726;8.892;2023-06-14T18:05:04;10.45;;;4.60;;
31594;SDS011;18200;48.726;8.892;2023-06-14T18:09:05;8.80;;;4.50;;
31594;SDS011;18200;48.726;8.892;2023-06-14T18:13:06;8.60;;;4.65;;
31594;SDS011;18200;48.726;8.892;2023-06-14T18:17:06;9.27;;;4.72;;
31594;SDS011;18200;48.726;8.892;2023-06-14T18:21:06;5.20;;;3.70;;
31594;SDS011;18200;48.726;8.892;2023-06-14T18:25:07;6.88;;;4.30;;
31594;SDS011;18200;48.726;8.892;2023-06-14T18:29:08;10.75;;;4.65;;
31594;SDS011;18200;48.726;8.892;2023-06-14T18:33:08;8.68;;;4.68;;
31594;SDS011;18200;48.726;8.892;2023-06-14T18:37:08;10.25;;;4.72;;
31594;SDS011;18200;48.726;8.892;2023-06-14T18:41:09;5.35;;;4.13;;
31594;SDS011;18200;48.726;8.892;2023-06-14T18:45:09;9.32;;;4.65;;
31594;SDS011;18200;48.726;8.892;2023-06-14T18:49:10;10.15;;;4.65;;
31594;SDS011;18200;48.726;8.892;2023-06-14T18:53:10;11.15;;;4.80;;
31594;SDS011;18200;48.726;8.892;2023-06-14T18:57:11;11.33;;;5.03;;
31594;SDS011;18200;48.726;8.892;2023-06-14T19:01:11;10.52;;;4.43;;
31594;SDS011;18200;48.726;8.892;2023-06-14T19:05:12;8.63;;;5.10;;
31594;SDS011;18200;48.726;8.892;2023-06-14T19:09:13;8.35;;;4.68;;
31594;SDS011;18200;48.726;8.892;2023-06-14T19:13:15;13.55;;;5.18;;
31594;SDS011;18200;48.726;8.892;2023-06-14T19:17:15;8.68;;;4.68;;
31594;SDS011;18200;48.726;8.892;2023-06-14T19:21:16;10.48;;;4.85;;
31594;SDS011;18200;48.726;8.892;2023-06-14T19:25:16;13.25;;;5.07;;
31594;SDS011;18200;48.726;8.892;2023-06-14T19:29:16;9.38;;;4.68;;
31594;SDS011;18200;48.726;8.892;2023-06-14T19:33:17;6.55;;;4.85;;
31594;SDS011;18200;48.726;8.892;2023-06-14T19:37:17;9.68;;;4.60;;
31594;SDS011;18200;48.726;8.892;2023-06-14T19:41:17;9.13;;;4.22;;
31594;SDS011;18200;48.726;8.892;2023-06-14T19:45:18;9.13;;;4.90;;
31594;SDS011;18200;48.726;8.892;2023-06-14T19:49:18;8.00;;;4.78;;
31594;SDS011;18200;48.726;8.892;2023-06-14T19:53:19;8.30;;;4.82;;
31594;SDS011;18200;48.726;8.892;2023-06-14T19:57:20;8.60;;;4.55;;
31594;SDS011;18200;48.726;8.892;2023-06-14T20:01:20;7.88;;;4.80;;
31594;SDS011;18200;48.726;8.892;2023-06-14T20:05:20;11.25;;;5.95;;
31594;SDS011;18200;48.726;8.892;2023-06-14T20:09:21;7.38;;;4.38;;
31594;SDS011;18200;48.726;8.892;2023-06-14T20:13:21;11.07;;;4.53;;
31594;SDS011;18200;48.726;8.892;2023-06-14T20:17:22;6.90;;;4.63;;
31594;SDS011;18200;48.726;8.892;2023-06-14T20:21:23;8.32;;;4.80;;
31594;SDS011;18200;48.726;8.892;2023-06-14T20:25:23;7.93;;;4.32;;
31594;SDS011;18200;48.726;8.892;2023-06-14T20:29:23;7.57;;;4.72;;
31594;SDS011;18200;48.726;8.892;2023-06-14T20:33:24;5.85;;;4.63;;
31594;SDS011;18200;48.726;8.892;2023-06-14T20:37:24;11.70;;;5.07;;
31594;SDS011;18200;48.726;8.892;2023-06-14T20:41:26;6.82;;;4.57;;
31594;SDS011;18200;48.726;8.892;2023-06-14T20:45:26;11.57;;;4.75;;
31594;SDS011;18200;48.726;8.892;2023-06-14T20:49:26;7.57;;;4.28;;
31594;SDS011;18200;48.726;8.892;2023-06-14T20:53:27;9.20;;;4.97;;
31594;SDS011;18200;48.726;8.892;2023-06-14T20:57:27;13.20;;;5.38;;
31594;SDS011;18200;48.726;8.892;2023-06-14T21:01:27;9.05;;;4.90;;
31594;SDS011;18200;48.726;8.892;2023-06-14T21:05:35;12.68;;;5.00;;
31594;SDS011;18200;48.726;8.892;2023-06-14T21:09:35;6.95;;;4.80;;
31594;SDS011;18200;48.726;8.892;2023-06-14T21:13:35;13.05;;;4.88;;
31594;SDS011;18200;48.726;8.892;2023-06-14T21:17:36;9.63;;;5.20;;
31594;SDS011;18200;48.726;8.892;2023-06-14T21:21:36;8.27;;;5.15;;
31594;SDS011;18200;48.726;8.892;2023-06-14T21:25:36;11.32;;;5.30;;
31594;SDS011;18200;48.726;8.892;2023-06-14T21:29:37;8.65;;;4.80;;
31594;SDS011;18200;48.726;8.892;2023-06-14T21:33:37;14.77;;;5.30;;
31594;SDS011;18200;48.726;8.892;2023-06-14T21:37:38;10.90;;;5.57;;
31594;SDS011;18200;48.726;8.892;2023-06-14T21:41:38;7.60;;;4.97;;
31594;SDS011;18200;48.726;8.892;2023-06-14T21:45:38;7.80;;;5.47;;
31594;SDS011;18200;48.726;8.892;2023-06-14T21:49:39;10.35;;;5.30;;
31594;SDS011;18200;48.726;8.892;2023-06-14T21:53:40;10.30;;;5.75;;
31594;SDS011;18200;48.726;8.892;2023-06-14T21:57:43;10.07;;;5.75;;
31594;SDS011;18200;48.726;8.892;2023-06-14T22:01:44;11.68;;;6.07;;
31594;SDS011;18200;48.726;8.892;2023-06-14T22:05:44;8.48;;;5.95;;
31594;SDS011;18200;48.726;8.892;2023-06-14T22:09:44;13.07;;;6.03;;
31594;SDS011;18200;48.726;8.892;2023-06-14T22:13:46;12.27;;;6.15;;
31594;SDS011;18200;48.726;8.892;2023-06-14T22:17:48;9.55;;;6.03;;
31594;SDS011;18200;48.726;8.892;2023-06-14T22:21:49;13.73;;;6.75;;
31594;SDS011;18200;48.726;8.892;2023-06-14T22:25:51;11.35;;;6.40;;
31594;SDS011;18200;48.726;8.892;2023-06-14T22:29:52;10.68;;;6.28;;
31594;SDS011;18200;48.726;8.892;2023-06-14T22:33:56;13.32;;;6.40;;
31594;SDS011;18200;48.726;8.892;2023-06-14T22:37:57;11.55;;;5.93;;
31594;SDS011;18200;48.726;8.892;2023-06-14T22:42:00;8.10;;;5.88;;
31594;SDS011;18200;48.726;8.892;2023-06-14T22:46:06;10.23;;;6.18;;
31594;SDS011;18200;48.726;8.892;2023-06-14T22:50:07;10.27;;;6.03;;
31594;SDS011;18200;48.726;8.892;2023-06-14T22:54:09;8.25;;;5.75;;
31594;SDS011;18200;48.726;8.892;2023-06-14T22:58:09;9.48;;;6.13;;
31594;SDS011;18200;48.726;8.892;2023-06-14T23:02:15;8.13;;;5.40;;
31594;SDS011;18200;48.726;8.892;2023-06-14T23:06:16;9.68;;;5.78;;
31594;SDS011;18200;48.726;8.892;2023-06-14T23:10:25;8.85;;;5.53;;
31594;SDS011;18200;48.726;8.892;2023-06-14T23:14:25;7.75;;;5.82;;
31594;SDS011;18200;48.726;8.892;2023-06-14T23:18:26;9.60;;;6.22;;
31594;SDS011;18200;48.726;8.892;2023-06-14T23:22:27;8.02;;;5.63;;
31594;SDS011;18200;48.726;8.892;2023-06-14T23:26:28;7.05;;;5.85;;
31594;SDS011;18200;48.726;8.892;2023-06-14T23:30:28;9.55;;;6.55;;
31594;SDS011;18200;48.726;8.892;2023-06-14T23:34:33;11.48;;;6.63;;
31594;SDS011;18200;48.726;8.892;2023-06-14T23:38:34;9.95;;;6.63;;
31594;SDS011;18200;48.726;8.892;2023-06-14T23:42:42;12.25;;;6.82;;
31594;SDS011;18200;48.726;8.892;2023-06-14T23:46:42;12.13;;;6.57;;
31594;SDS011;18200;48.726;8.892;2023-06-14T23:50:42;8.20;;;6.18;;
31594;SDS011;18200;48.726;8.892;2023-06-14T23:54:43;18.90;;;6.60;;
31594;SDS011;18200;48.726;8.892;2023-06-14T23:58:46;9.65;;;6.32;;
